createdAt,value
2022-10-25T00:02:20.085Z,100415.91
2022-10-25T00:04:47.711Z,100422.91
2022-10-25T00:07:14.986Z,100429.06
2022-10-25T00:09:42.203Z,100431.50
2022-10-25T00:12:08.849Z,100428.38
2022-10-25T00:14:35.751Z,100421.97
2022-10-25T00:17:02.772Z,100428.13
2022-10-25T00:19:29.767Z,100434.06
2022-10-25T00:21:56.335Z,100430.34
2022-10-25T00:24:23.043Z,100423.16
2022-10-25T00:26:49.572Z,100430.47
2022-10-25T00:29:17.428Z,100432.91
2022-10-25T00:31:44.107Z,100434.53
2022-10-25T00:34:10.632Z,100427.09
2022-10-25T00:36:37.234Z,100431.06
2022-10-25T00:39:03.869Z,100429.19
2022-10-25T00:41:32.565Z,100422.47
2022-10-25T00:44:36.368Z,100432.09
2022-10-25T00:47:10.805Z,100427.09
2022-10-25T00:49:37.619Z,100426.59
2022-10-25T00:52:07.536Z,100427.38
2022-10-25T00:54:42.866Z,100436.31
2022-10-25T00:57:15.958Z,100436.31
2022-10-25T00:59:45.619Z,100435.75
2022-10-25T01:02:13.204Z,100437.34
2022-10-25T01:04:40.805Z,100439.22
2022-10-25T01:07:07.417Z,100441.56
2022-10-25T01:09:36.531Z,100438.53
2022-10-25T01:12:03.271Z,100447.59
2022-10-25T01:14:32.898Z,100451.56
2022-10-25T01:17:38.794Z,100453.19
2022-10-25T01:20:33.013Z,100457.13
2022-10-25T01:23:06.691Z,100450.66
2022-10-25T01:26:04.687Z,100449.00
2022-10-25T01:28:38.217Z,100453.06
2022-10-25T01:31:30.454Z,100454.78
2022-10-25T01:34:11.068Z,100451.56
2022-10-25T01:37:09.892Z,100453.44
2022-10-25T01:39:42.522Z,100449.72
2022-10-25T01:42:14.537Z,100451.44
2022-10-25T01:45:08.819Z,100450.66
2022-10-25T01:47:44.855Z,100456.94
2022-10-25T01:50:17.943Z,100450.88
2022-10-25T01:52:44.625Z,100452.63
2022-10-25T01:55:14.043Z,100460.63
2022-10-25T01:57:40.488Z,100459.72
2022-10-25T02:00:12.377Z,100447.88
2022-10-25T02:03:11.371Z,100452.03
2022-10-25T02:05:56.321Z,100458.22
2022-10-25T02:08:37.539Z,100468.56
2022-10-25T02:11:27.298Z,100475.53
2022-10-25T02:14:19.801Z,100461.38
2022-10-25T02:17:11.631Z,100474.59
2022-10-25T02:19:49.652Z,100472.03
2022-10-25T02:22:19.581Z,100468.53
2022-10-25T02:24:49.751Z,100476.69
2022-10-25T02:27:19.075Z,100477.75
2022-10-25T02:29:46.972Z,100480.53
2022-10-25T02:32:13.659Z,100480.41
2022-10-25T02:34:41.109Z,100479.84
2022-10-25T02:37:07.980Z,100481.34
2022-10-25T02:39:35.644Z,100478.09
2022-10-25T02:42:02.649Z,100475.31
2022-10-25T02:44:29.477Z,100482.88
2022-10-25T02:46:56.092Z,100486.47
2022-10-25T02:49:22.730Z,100490.88
2022-10-25T02:51:49.512Z,100485.28
2022-10-25T02:54:16.294Z,100493.34
2022-10-25T02:56:42.944Z,100494.13
2022-10-25T02:59:12.136Z,100494.84
2022-10-25T03:01:38.816Z,100494.84
2022-10-25T03:04:05.547Z,100497.84
2022-10-25T03:06:32.699Z,100497.03
2022-10-25T03:08:59.436Z,100501.00
2022-10-25T03:11:26.156Z,100499.63
2022-10-25T03:13:52.991Z,100506.09
2022-10-25T03:16:19.791Z,100499.72
2022-10-25T03:18:46.578Z,100504.38
2022-10-25T03:21:13.272Z,100505.06
2022-10-25T03:23:39.826Z,100509.50
2022-10-25T03:26:06.398Z,100503.69
2022-10-25T03:28:33.020Z,100510.88
2022-10-25T03:31:00.251Z,100515.53
2022-10-25T03:33:27.827Z,100510.78
2022-10-25T03:35:55.852Z,100517.88
2022-10-25T03:38:23.034Z,100520.66
2022-10-25T03:40:49.891Z,100522.16
2022-10-25T03:43:16.621Z,100528.09
2022-10-25T03:45:43.290Z,100530.88
2022-10-25T03:48:09.959Z,100534.38
2022-10-25T03:50:36.908Z,100537.63
2022-10-25T03:53:04.836Z,100535.31
2022-10-25T03:55:32.324Z,100537.88
2022-10-25T03:57:59.281Z,100537.16
2022-10-25T04:00:26.522Z,100542.28
2022-10-25T04:03:02.526Z,100545.09
2022-10-25T04:05:30.634Z,100553.34
2022-10-25T04:07:57.473Z,100539.50
2022-10-25T04:10:25.362Z,100548.34
2022-10-25T04:12:53.894Z,100542.88
2022-10-25T04:15:21.615Z,100552.41
2022-10-25T04:17:52.363Z,100552.97
2022-10-25T04:20:19.953Z,100561.34
2022-10-25T04:22:53.282Z,100548.91
2022-10-25T04:25:20.032Z,100551.25
2022-10-25T04:27:47.021Z,100544.47
2022-10-25T04:30:14.054Z,100548.34
2022-10-25T04:32:40.821Z,100553.66
2022-10-25T04:35:08.073Z,100545.88
2022-10-25T04:37:37.294Z,100546.69
2022-10-25T04:40:05.012Z,100554.13
2022-10-25T04:42:36.268Z,100558.09
2022-10-25T04:45:03.214Z,100560.53
2022-10-25T04:47:51.347Z,100559.25
2022-10-25T04:50:18.157Z,100557.28
2022-10-25T04:52:44.734Z,100561.13
2022-10-25T04:55:11.625Z,100564.59
2022-10-25T04:57:38.524Z,100569.72
2022-10-25T05:00:05.432Z,100563.31
2022-10-25T05:02:32.141Z,100567.16
2022-10-25T05:05:01.529Z,100572.75
2022-10-25T05:07:28.114Z,100559.94
2022-10-25T05:09:54.874Z,100563.22
2022-10-25T05:12:23.141Z,100575.06
2022-10-25T05:14:49.729Z,100572.75
2022-10-25T05:17:16.414Z,100577.38
2022-10-25T05:19:43.165Z,100572.28
2022-10-25T05:22:09.913Z,100576.59
2022-10-25T05:24:36.531Z,100574.81
2022-10-25T05:27:04.419Z,100580.41
2022-10-25T05:29:31.095Z,100585.28
2022-10-25T05:31:57.865Z,100588.31
2022-10-25T05:34:24.704Z,100586.22
2022-10-25T05:36:51.845Z,100585.91
2022-10-25T05:39:18.337Z,100580.63
2022-10-25T05:41:45.031Z,100583.09
2022-10-25T05:44:11.607Z,100586.69
2022-10-25T05:46:38.163Z,100582.50
2022-10-25T05:49:23.363Z,100594.38
2022-10-25T05:51:49.935Z,100593.69
2022-10-25T05:54:16.719Z,100596.69
2022-10-25T05:56:43.651Z,100601.09
2022-10-25T05:59:12.964Z,100602.06
2022-10-25T06:01:40.911Z,100606.31
2022-10-25T06:04:08.880Z,100613.66
2022-10-25T06:06:37.716Z,100611.44
2022-10-25T06:09:05.135Z,100613.53
2022-10-25T06:11:32.144Z,100615.53
2022-10-25T06:13:58.855Z,100624.13
2022-10-25T06:16:25.467Z,100633.19
2022-10-25T06:18:53.179Z,100631.56
2022-10-25T06:21:22.532Z,100633.63
2022-10-25T06:23:49.491Z,100643.41
2022-10-25T06:26:19.157Z,100640.41
2022-10-25T06:28:46.278Z,100640.13
2022-10-25T06:31:15.662Z,100654.06
2022-10-25T06:33:43.269Z,100656.63
2022-10-25T06:36:15.025Z,100650.25
2022-10-25T06:38:42.265Z,100662.91
2022-10-25T06:41:13.878Z,100656.88
2022-10-25T06:43:40.475Z,100670.00
2022-10-25T06:46:17.694Z,100676.16
2022-10-25T06:48:44.241Z,100673.09
2022-10-25T06:51:10.941Z,100674.75
2022-10-25T06:53:38.396Z,100682.22
2022-10-25T06:56:14.225Z,100688.00
2022-10-25T06:58:41.963Z,100688.91
2022-10-25T07:01:13.947Z,100700.41
2022-10-25T07:03:41.385Z,100699.59
2022-10-25T07:06:10.933Z,100698.44
2022-10-25T07:08:39.404Z,100697.06
2022-10-25T07:11:07.446Z,100693.81
2022-10-25T07:13:34.700Z,100692.69
2022-10-25T07:16:06.406Z,100705.22
2022-10-25T07:18:34.138Z,100712.38
2022-10-25T07:21:12.365Z,100707.97
2022-10-25T07:23:42.634Z,100708.84
2022-10-25T07:26:10.848Z,100711.09
2022-10-25T07:28:37.549Z,100719.81
2022-10-25T07:31:04.244Z,100715.16
2022-10-25T07:33:31.890Z,100721.84
2022-10-25T07:36:09.575Z,100724.28
2022-10-25T07:38:37.466Z,100727.00
2022-10-25T07:41:04.227Z,100722.97
2022-10-25T07:43:30.956Z,100718.34
2022-10-25T07:45:57.794Z,100725.81
2022-10-25T07:48:24.526Z,100725.81
2022-10-25T07:50:51.306Z,100731.66
2022-10-25T07:53:18.659Z,100729.09
2022-10-25T07:56:18.827Z,100739.94
2022-10-25T07:58:49.138Z,100739.25
2022-10-25T08:01:28.537Z,100736.31
2022-10-25T08:03:55.957Z,100736.97
2022-10-25T08:06:24.433Z,100733.41
2022-10-25T08:08:51.188Z,100732.59
2022-10-25T08:11:18.139Z,100735.16
2022-10-25T08:13:47.514Z,100735.16
2022-10-25T08:16:14.230Z,100742.34
2022-10-25T08:18:43.022Z,100737.94
2022-10-25T08:21:09.664Z,100746.09
2022-10-25T08:23:36.255Z,100740.81
2022-10-25T08:26:03.467Z,100749.66
2022-10-25T08:28:31.396Z,100752.03
2022-10-25T08:30:59.065Z,100759.59
2022-10-25T08:33:25.980Z,100755.88
2022-10-25T08:35:52.678Z,100754.72
2022-10-25T08:38:19.434Z,100759.94
2022-10-25T08:40:51.574Z,100754.50
2022-10-25T08:43:50.345Z,100761.03
2022-10-25T08:46:32.073Z,100767.56
2022-10-25T08:49:38.442Z,100763.13
2022-10-25T08:52:17.381Z,100765.78
2022-10-25T08:54:45.265Z,100771.50
2022-10-25T08:57:24.613Z,100765.94
2022-10-25T08:59:55.306Z,100761.28
2022-10-25T09:02:25.072Z,100767.28
2022-10-25T09:04:51.974Z,100758.88
2022-10-25T09:07:43.192Z,100761.03
2022-10-25T09:10:27.567Z,100755.41
2022-10-25T09:13:01.617Z,100757.25
2022-10-25T09:15:47.904Z,100762.88
2022-10-25T09:18:17.206Z,100766.75
2022-10-25T09:20:48.260Z,100776.41
2022-10-25T09:23:28.999Z,100773.41
2022-10-25T09:26:16.756Z,100784.31
2022-10-25T09:29:09.835Z,100784.03
2022-10-25T09:31:41.452Z,100785.91
2022-10-25T09:34:11.027Z,100794.97
2022-10-25T09:36:49.073Z,100793.59
2022-10-25T09:39:37.235Z,100792.41
2022-10-25T09:42:07.619Z,100796.09
2022-10-25T09:44:54.719Z,100797.72
2022-10-25T09:47:31.589Z,100803.66
2022-10-25T09:50:02.699Z,100802.16
2022-10-25T09:52:43.862Z,100799.09
2022-10-25T09:55:34.623Z,100800.16
2022-10-25T09:58:01.990Z,100797.72
2022-10-25T10:00:29.383Z,100801.19
2022-10-25T10:02:56.471Z,100803.28
2022-10-25T10:05:23.239Z,100800.38
2022-10-25T10:07:50.870Z,100799.34
2022-10-25T10:10:22.386Z,100804.94
2022-10-25T10:13:12.152Z,100799.75
2022-10-25T10:16:01.192Z,100797.06
2022-10-25T10:18:27.799Z,100801.13
2022-10-25T10:21:12.012Z,100796.19
2022-10-25T10:23:41.579Z,100797.19
2022-10-25T10:26:26.127Z,100801.88
2022-10-25T10:29:07.892Z,100807.09
2022-10-25T10:31:42.493Z,100810.56
2022-10-25T10:34:30.606Z,100804.06
2022-10-25T10:37:05.114Z,100800.13
2022-10-25T10:39:32.246Z,100805.38
2022-10-25T10:42:16.926Z,100801.09
2022-10-25T10:45:09.103Z,100798.06
2022-10-25T10:47:51.279Z,100806.13
2022-10-25T10:50:21.191Z,100808.69
2022-10-25T10:52:56.540Z,100801.59
2022-10-25T10:55:32.991Z,100791.22
2022-10-25T10:58:06.397Z,100797.75
2022-10-25T11:00:34.739Z,100804.16
2022-10-25T11:03:01.621Z,100803.44
2022-10-25T11:05:28.311Z,100801.03
2022-10-25T11:08:00.920Z,100806.25
2022-10-25T11:10:30.889Z,100806.03
2022-10-25T11:13:08.796Z,100811.41
2022-10-25T11:15:40.892Z,100813.28
2022-10-25T11:18:08.849Z,100820.72
2022-10-25T11:20:58.115Z,100815.81
2022-10-25T11:23:36.547Z,100824.78
2022-10-25T11:26:15.880Z,100821.53
2022-10-25T11:29:17.055Z,100818.59
2022-10-25T11:31:57.261Z,100806.03
2022-10-25T11:34:34.899Z,100797.41
2022-10-25T11:37:31.561Z,100801.34
2022-10-25T11:40:17.922Z,100803.72
2022-10-25T11:43:20.113Z,100804.63
2022-10-25T11:45:51.400Z,100805.22
2022-10-25T11:48:59.828Z,100808.94
2022-10-25T11:52:16.750Z,100811.50
2022-10-25T11:54:49.730Z,100803.94
2022-10-25T11:57:27.851Z,100799.75
2022-10-25T12:00:19.963Z,100803.78
2022-10-25T12:03:23.868Z,100805.53
2022-10-25T12:06:00.919Z,100806.94
2022-10-25T12:08:34.088Z,100804.16
2022-10-25T12:11:16.417Z,100808.53
2022-10-25T12:13:51.117Z,100814.84
2022-10-25T12:16:20.059Z,100806.84
2022-10-25T12:19:06.435Z,100813.72
2022-10-25T12:21:42.889Z,100813.94
2022-10-25T12:24:20.002Z,100805.69
2022-10-25T12:26:49.250Z,100799.16
2022-10-25T12:29:33.786Z,100800.69
2022-10-25T12:32:03.206Z,100796.03
2022-10-25T12:34:46.868Z,100792.88
2022-10-25T12:37:56.471Z,100794.16
2022-10-25T12:40:28.731Z,100791.03
2022-10-25T12:43:16.601Z,100797.88
2022-10-25T12:45:58.263Z,100805.31
2022-10-25T12:48:47.397Z,100793.09
2022-10-25T12:51:48.037Z,100800.19
2022-10-25T12:54:35.238Z,100796.94
2022-10-25T12:57:27.608Z,100789.13
2022-10-25T13:03:19.422Z,100795.06
2022-10-25T13:06:17.076Z,100792.47
2022-10-25T13:08:44.685Z,100782.97
2022-10-25T13:11:12.187Z,100783.91
2022-10-25T13:13:54.129Z,100784.81
2022-10-25T13:16:29.330Z,100789.72
2022-10-25T13:19:35.989Z,100789.28
2022-10-25T13:22:37.854Z,100785.28
2022-10-25T13:25:08.378Z,100789.47
2022-10-25T13:27:36.190Z,100788.66
2022-10-25T13:30:02.929Z,100785.78
2022-10-25T13:32:33.765Z,100787.38
2022-10-25T13:35:02.257Z,100785.06
2022-10-25T13:37:31.598Z,100787.63
2022-10-25T13:40:04.540Z,100792.28
2022-10-25T13:42:38.250Z,100783.44
2022-10-25T13:45:38.399Z,100785.78
2022-10-25T13:48:13.565Z,100787.19
2022-10-25T13:50:55.579Z,100789.50
2022-10-25T13:53:42.367Z,100775.78
2022-10-25T13:56:18.013Z,100777.19
2022-10-25T13:58:56.375Z,100789.03
2022-10-25T14:01:24.872Z,100790.66
2022-10-25T14:04:01.654Z,100789.75
2022-10-25T14:06:41.681Z,100789.38
2022-10-25T14:09:36.650Z,100780.19
2022-10-25T14:12:06.538Z,100779.72
2022-10-25T14:14:47.414Z,100781.00
2022-10-25T14:17:34.865Z,100774.84
2022-10-25T14:20:07.367Z,100773.09
2022-10-25T14:22:41.529Z,100779.97
2022-10-25T14:25:36.221Z,100773.22
2022-10-25T14:28:05.739Z,100770.19
2022-10-25T14:30:55.565Z,100771.25
2022-10-25T14:33:25.066Z,100769.28
2022-10-25T14:36:13.607Z,100761.34
2022-10-25T14:42:02.214Z,100769.38
2022-10-25T14:44:31.770Z,100766.91
2022-10-25T14:57:47.693Z,100739.56
2022-10-25T15:00:19.946Z,100744.44
2022-10-25T15:05:28.675Z,100748.25
2022-10-25T15:07:57.639Z,100744.91
2022-10-25T15:10:30.450Z,100748.06
2022-10-25T15:13:03.843Z,100741.31
2022-10-25T15:15:40.548Z,100735.16
2022-10-25T15:18:29.019Z,100737.13
2022-10-25T15:21:05.153Z,100740.81
2022-10-25T15:23:32.253Z,100732.44
2022-10-25T15:25:59.645Z,100724.53
2022-10-25T15:28:46.982Z,100723.97
2022-10-25T15:31:16.148Z,100725.94
2022-10-25T15:33:45.607Z,100719.84
2022-10-25T15:36:21.684Z,100716.50
2022-10-25T15:39:07.243Z,100713.81
2022-10-25T15:41:35.369Z,100713.81
2022-10-25T15:44:02.049Z,100714.97
2022-10-25T15:46:31.476Z,100716.16
2022-10-25T15:48:59.615Z,100711.47
2022-10-25T15:51:30.200Z,100719.16
2022-10-25T15:53:57.861Z,100716.34
2022-10-25T15:56:24.637Z,100714.72
2022-10-25T15:58:51.307Z,100706.13
2022-10-25T16:01:18.572Z,100694.00
2022-10-25T16:03:45.373Z,100698.44
2022-10-25T16:06:14.212Z,100703.75
2022-10-25T16:08:42.071Z,100702.03
2022-10-25T16:11:20.214Z,100696.53
2022-10-25T16:13:52.627Z,100703.75
2022-10-25T16:16:39.461Z,100690.16
2022-10-25T16:19:13.827Z,100703.53
2022-10-25T16:21:40.534Z,100695.00
2022-10-25T16:24:07.148Z,100697.84
2022-10-25T16:26:40.961Z,100687.25
2022-10-25T16:29:14.084Z,100692.72
2022-10-25T16:31:40.750Z,100687.03
2022-10-25T16:34:07.305Z,100692.59
2022-10-25T16:36:33.820Z,100691.13
2022-10-25T16:39:00.834Z,100686.94
2022-10-25T16:41:31.668Z,100685.03
2022-10-25T16:43:58.689Z,100681.22
2022-10-25T16:46:26.123Z,100685.41
2022-10-25T16:48:53.565Z,100687.97
2022-10-25T16:51:22.038Z,100680.97
2022-10-25T16:53:48.905Z,100681.09
2022-10-25T16:56:16.927Z,100683.56
2022-10-25T16:58:43.677Z,100680.97
2022-10-25T17:01:34.444Z,100671.31
2022-10-25T17:04:02.981Z,100674.13
2022-10-25T17:06:40.830Z,100661.53
2022-10-25T17:09:07.798Z,100660.75
2022-10-25T17:11:34.397Z,100665.53
2022-10-25T17:14:01.012Z,100664.25
2022-10-25T17:16:27.549Z,100656.56
2022-10-25T17:18:54.124Z,100655.88
2022-10-25T17:21:20.690Z,100650.50
2022-10-25T17:23:47.435Z,100651.69
2022-10-25T17:26:14.259Z,100655.63
2022-10-25T17:28:43.958Z,100651.56
2022-10-25T17:31:13.687Z,100663.53
2022-10-25T17:33:42.250Z,100653.53
2022-10-25T17:36:18.310Z,100651.44
2022-10-25T17:38:44.926Z,100659.81
2022-10-25T17:41:13.001Z,100666.59
2022-10-25T17:43:41.248Z,100664.25
2022-10-25T17:46:10.707Z,100657.72
2022-10-25T17:48:37.522Z,100653.78
2022-10-25T17:51:08.417Z,100659.22
2022-10-25T17:53:35.455Z,100657.25
2022-10-25T17:56:19.140Z,100654.00
2022-10-25T17:58:47.521Z,100647.25
2022-10-25T18:01:17.207Z,100651.22
2022-10-25T18:03:44.118Z,100649.56
2022-10-25T18:06:13.187Z,100652.81
2022-10-25T18:08:40.203Z,100650.41
2022-10-25T18:11:15.625Z,100651.44
2022-10-25T18:13:42.422Z,100642.72
2022-10-25T18:16:11.187Z,100647.94
2022-10-25T18:18:38.861Z,100644.56
2022-10-25T18:21:08.336Z,100641.44
2022-10-25T18:23:35.509Z,100643.75
2022-10-25T18:26:03.109Z,100642.59
2022-10-25T18:28:31.824Z,100645.38
2022-10-25T18:31:09.607Z,100648.38
2022-10-25T18:33:38.465Z,100646.75
2022-10-25T18:36:15.351Z,100650.34
2022-10-25T18:38:42.301Z,100652.31
2022-10-25T18:41:12.839Z,100644.41
2022-10-25T18:43:39.564Z,100637.09
2022-10-25T18:46:06.252Z,100643.63
2022-10-25T18:48:32.890Z,100646.75
2022-10-25T18:51:04.865Z,100640.56
2022-10-25T18:53:32.037Z,100647.91
2022-10-25T18:55:58.804Z,100643.94
2022-10-25T18:58:25.514Z,100637.53
2022-10-25T19:00:52.565Z,100635.13
2022-10-25T19:03:19.313Z,100628.72
2022-10-25T19:05:46.030Z,100639.53
2022-10-25T19:08:12.995Z,100632.19
2022-10-25T19:10:40.816Z,100627.44
2022-10-25T19:13:09.421Z,100625.22
2022-10-25T19:15:36.201Z,100623.50
2022-10-25T19:18:02.836Z,100615.31
2022-10-25T19:20:29.439Z,100609.28
2022-10-25T19:22:58.721Z,100614.16
2022-10-25T19:25:29.663Z,100610.44
2022-10-25T19:27:56.905Z,100605.34
2022-10-25T19:30:24.343Z,100604.97
2022-10-25T19:32:51.004Z,100604.06
2022-10-25T19:35:18.285Z,100595.44
2022-10-25T19:37:45.441Z,100598.09
2022-10-25T19:40:12.793Z,100591.25
2022-10-25T19:42:39.602Z,100585.78
2022-10-25T19:45:06.673Z,100590.44
2022-10-25T19:47:35.159Z,100586.00
2022-10-25T19:50:03.422Z,100580.22
2022-10-25T19:52:29.948Z,100576.03
2022-10-25T19:54:56.638Z,100578.34
2022-10-25T19:57:23.383Z,100574.50
2022-10-25T19:59:50.319Z,100565.88
2022-10-25T20:02:17.280Z,100559.25
2022-10-25T20:04:44.093Z,100560.88
2022-10-25T20:07:10.923Z,100564.03
2022-10-25T20:09:37.671Z,100560.88
2022-10-25T20:12:04.584Z,100565.53
2022-10-25T20:14:33.382Z,100566.47
2022-10-25T20:17:00.159Z,100555.53
2022-10-25T20:19:26.878Z,100549.72
2022-10-25T20:21:53.624Z,100556.94
2022-10-25T20:24:20.133Z,100567.88
2022-10-25T20:26:49.722Z,100562.31
2022-10-25T20:29:21.392Z,100550.44
2022-10-25T20:31:49.554Z,100550.44
2022-10-25T20:34:17.016Z,100558.31
2022-10-25T20:36:43.604Z,100546.25
2022-10-25T20:39:11.739Z,100549.00
2022-10-25T20:41:39.427Z,100536.44
2022-10-25T20:44:07.289Z,100547.03
2022-10-25T20:46:35.347Z,100544.38
2022-10-25T20:49:03.456Z,100547.50
2022-10-25T20:51:30.429Z,100552.75
2022-10-25T20:53:57.304Z,100554.38
2022-10-25T20:56:24.550Z,100552.75
2022-10-25T20:58:51.133Z,100550.88
2022-10-25T21:01:18.368Z,100547.16
2022-10-25T21:03:45.093Z,100543.22
2022-10-25T21:06:12.746Z,100536.69
2022-10-25T21:08:40.045Z,100543.00
2022-10-25T21:11:09.317Z,100540.91
2022-10-25T21:13:37.333Z,100540.53
2022-10-25T21:16:07.377Z,100549.03
2022-10-25T21:18:34.305Z,100542.50
2022-10-25T21:21:03.161Z,100540.91
2022-10-25T21:23:31.084Z,100539.72
2022-10-25T21:26:02.002Z,100540.91
2022-10-25T21:28:33.206Z,100546.59
2022-10-25T21:31:01.169Z,100541.81
2022-10-25T21:33:28.112Z,100533.78
2022-10-25T21:35:54.941Z,100530.19
2022-10-25T21:38:21.668Z,100530.75
2022-10-25T21:40:48.167Z,100540.41
2022-10-25T21:43:14.795Z,100536.69
2022-10-25T21:45:42.095Z,100537.25
2022-10-25T21:48:08.724Z,100526.69
2022-10-25T21:50:35.595Z,100533.78
2022-10-25T21:53:02.181Z,100525.75
2022-10-25T21:55:28.920Z,100533.19
2022-10-25T21:57:57.179Z,100533.53
2022-10-25T22:00:24.172Z,100527.38
2022-10-25T22:03:09.224Z,100529.03
2022-10-25T22:05:41.886Z,100524.16
2022-10-25T22:08:08.672Z,100531.44
2022-10-25T22:10:35.198Z,100525.16
2022-10-25T22:13:01.855Z,100519.69
2022-10-25T22:15:28.539Z,100519.47
2022-10-25T22:17:55.105Z,100517.84
2022-10-25T22:20:21.809Z,100510.63
2022-10-25T22:22:48.708Z,100506.69
2022-10-25T22:25:15.726Z,100509.94
2022-10-25T22:30:14.160Z,100501.81
2022-10-25T22:32:40.786Z,100504.34
2022-10-25T22:35:07.727Z,100505.28
2022-10-25T22:37:34.391Z,100505.72
2022-10-25T22:40:01.209Z,100505.28
2022-10-25T22:42:28.110Z,100503.63
2022-10-25T22:44:54.931Z,100498.16
2022-10-25T22:47:21.717Z,100494.25
2022-10-25T22:49:48.203Z,100493.16
2022-10-25T22:52:14.809Z,100499.81
2022-10-25T22:54:41.491Z,100505.28
2022-10-25T22:57:07.994Z,100502.84
2022-10-25T22:59:34.718Z,100492.72
2022-10-25T23:02:01.754Z,100500.72
2022-10-25T23:04:28.405Z,100499.69
2022-10-25T23:06:55.078Z,100497.59
2022-10-25T23:09:21.649Z,100491.56
2022-10-25T23:11:49.991Z,100500.63
2022-10-25T23:14:17.583Z,100490.38
2022-10-25T23:16:45.270Z,100491.06
2022-10-25T23:19:11.953Z,100482.13
2022-10-25T23:21:38.581Z,100485.75
2022-10-25T23:24:05.601Z,100476.66
2022-10-25T23:26:36.466Z,100476.44
2022-10-25T23:29:04.206Z,100470.13
2022-10-25T23:31:31.161Z,100476.44
2022-10-25T23:33:59.735Z,100469.25
2022-10-25T23:36:29.503Z,100476.34
2022-10-25T23:38:57.752Z,100480.97
2022-10-25T23:41:24.736Z,100469.47
2022-10-25T23:43:51.759Z,100471.78
2022-10-25T23:46:18.919Z,100470.88
2022-10-25T23:48:45.613Z,100464.94
2022-10-25T23:51:14.983Z,100459.47
2022-10-25T23:53:41.627Z,100463.44
2022-10-25T23:56:10.248Z,100462.28
2022-10-25T23:58:37.916Z,100463.66
